Time;durP1;ratioP1;P1;durP2;ratioP2;P2;SDS_P1;SDS_P2;PMS_P1;PMS_P2;Temp;Humidity;BMP_temperature;BMP_pressure;BME280_temperature;BME280_humidity;BME280_pressure;Samples;Min_cycle;Max_cycle;Signal;HPM_P1;HPM_P2
2020/12/21 00:01:14;;;;;;;2.55;1.20;;;23.60;37.00;;;;;;5025624;28;20120;-44
2020/12/21 00:03:40;;;;;;;2.08;1.20;;;23.50;37.00;;;;;;5025772;28;20104;-44
2020/12/21 00:06:11;;;;;;;2.22;1.10;;;23.50;37.00;;;;;;5025546;28;20578;-43
2020/12/21 00:08:37;;;;;;;1.55;0.90;;;23.50;37.00;;;;;;5026371;28;20025;-44
2020/12/21 00:11:03;;;;;;;4.50;1.25;;;23.50;37.00;;;;;;5032337;28;20168;-44
2020/12/21 00:13:30;;;;;;;3.40;1.40;;;23.50;37.00;;;;;;5030426;28;20112;-42
2020/12/21 00:15:56;;;;;;;2.97;1.25;;;23.50;37.10;;;;;;5020611;28;20054;-45
2020/12/21 00:18:22;;;;;;;2.72;1.20;;;23.40;37.10;;;;;;5022617;28;21205;-42
2020/12/21 00:20:47;;;;;;;2.03;1.00;;;23.40;37.00;;;;;;5027254;28;20057;-41
2020/12/21 00:23:14;;;;;;;2.80;1.50;;;23.40;37.10;;;;;;5029005;28;20134;-42
2020/12/21 00:25:39;;;;;;;2.65;1.20;;;23.40;37.10;;;;;;5028746;28;20350;-46
2020/12/21 00:28:05;;;;;;;2.45;1.30;;;23.40;37.10;;;;;;5022119;28;20018;-42
2020/12/21 00:30:31;;;;;;;2.42;1.00;;;23.40;37.20;;;;;;5021091;28;20209;-42
2020/12/21 00:32:57;;;;;;;1.90;1.23;;;23.40;37.20;;;;;;5024922;28;20036;-45
2020/12/21 00:35:22;;;;;;;2.58;1.10;;;23.40;37.20;;;;;;5028682;28;20030;-46
2020/12/21 00:37:48;;;;;;;3.17;1.20;;;23.30;37.20;;;;;;5020689;28;20045;-44
2020/12/21 00:40:14;;;;;;;2.53;1.20;;;23.30;37.20;;;;;;5011489;28;20456;-43
2020/12/21 00:42:43;;;;;;;3.10;1.27;;;23.30;37.20;;;;;;5020400;28;20029;-45
2020/12/21 00:45:09;;;;;;;2.35;1.10;;;23.30;37.20;;;;;;5025013;28;20029;-43
2020/12/21 00:47:35;;;;;;;2.15;1.10;;;23.30;37.30;;;;;;5025873;28;20034;-42
2020/12/21 00:50:00;;;;;;;3.03;1.48;;;23.30;37.30;;;;;;5008319;28;20061;-42
2020/12/21 00:52:26;;;;;;;2.33;1.25;;;23.30;37.30;;;;;;5000710;28;20026;-44
2020/12/21 00:54:52;;;;;;;3.83;1.48;;;23.30;37.30;;;;;;5031491;28;20087;-44
2020/12/21 00:57:18;;;;;;;2.80;1.20;;;23.20;37.30;;;;;;5025915;28;20489;-45
2020/12/21 00:59:43;;;;;;;3.25;1.45;;;23.20;37.30;;;;;;5023496;28;20025;-44
2020/12/21 01:02:09;;;;;;;2.67;1.30;;;23.20;37.30;;;;;;5028060;28;20033;-42
2020/12/21 01:04:35;;;;;;;2.63;1.20;;;23.20;37.30;;;;;;5027987;28;20069;-42
2020/12/21 01:07:01;;;;;;;2.40;1.15;;;23.20;37.30;;;;;;5023265;28;20034;-45
2020/12/21 01:09:26;;;;;;;2.50;1.20;;;23.20;37.30;;;;;;5016385;28;20482;-42
2020/12/21 01:11:53;;;;;;;2.70;1.17;;;23.20;37.40;;;;;;5003860;28;20457;-43
2020/12/21 01:14:19;;;;;;;2.42;1.17;;;23.20;37.40;;;;;;5004189;28;20030;-41
2020/12/21 01:16:45;;;;;;;2.17;1.00;;;23.10;37.30;;;;;;5004833;28;20041;-45
2020/12/21 01:19:11;;;;;;;2.45;1.00;;;23.10;37.30;;;;;;5004247;28;20084;-44
2020/12/21 01:21:37;;;;;;;2.72;1.05;;;23.10;37.40;;;;;;5005614;28;20429;-43
2020/12/21 01:24:03;;;;;;;2.97;1.35;;;23.10;37.40;;;;;;5005550;28;20402;-46
2020/12/21 01:26:30;;;;;;;1.80;1.17;;;23.10;37.30;;;;;;5005293;28;20034;-42
2020/12/21 01:28:56;;;;;;;2.05;1.10;;;23.10;37.40;;;;;;5006664;28;20334;-44
2020/12/21 01:31:22;;;;;;;2.00;1.15;;;23.10;37.40;;;;;;5004806;28;20092;-43
2020/12/21 01:33:49;;;;;;;2.63;1.02;;;23.10;37.40;;;;;;5003747;28;20038;-45
2020/12/21 01:36:17;;;;;;;4.78;1.40;;;23.00;37.30;;;;;;5006117;28;20490;-44
2020/12/21 01:38:43;;;;;;;1.88;0.90;;;23.10;37.40;;;;;;5004438;28;20054;-45
2020/12/21 01:41:09;;;;;;;2.25;1.10;;;23.00;37.40;;;;;;5005197;28;20030;-43
2020/12/21 01:43:35;;;;;;;2.53;1.17;;;23.00;37.40;;;;;;5005778;28;20022;-43
2020/12/21 01:46:11;;;;;;;1.88;1.00;;;23.00;37.50;;;;;;5004241;28;20034;-46
2020/12/21 01:48:38;;;;;;;2.10;1.20;;;23.00;37.40;;;;;;5002028;28;20890;-45
2020/12/21 01:51:07;;;;;;;2.97;1.10;;;23.00;37.40;;;;;;5005974;28;20433;-42
2020/12/21 01:53:36;;;;;;;1.90;1.05;;;23.00;37.40;;;;;;5002604;28;20038;-43
2020/12/21 01:56:06;;;;;;;2.33;1.33;;;23.00;37.50;;;;;;5005041;28;20132;-44
2020/12/21 01:58:34;;;;;;;2.42;1.30;;;22.90;37.40;;;;;;5004328;28;20018;-41
2020/12/21 02:01:03;;;;;;;1.83;0.98;;;22.90;37.40;;;;;;5004495;28;20041;-46
2020/12/21 02:03:29;;;;;;;2.58;1.15;;;22.90;37.40;;;;;;5002119;28;20145;-45
2020/12/21 02:05:55;;;;;;;2.67;1.10;;;22.90;37.40;;;;;;5004719;28;20037;-43
2020/12/21 02:08:21;;;;;;;2.08;1.00;;;22.90;37.40;;;;;;5005029;28;20026;-46
2020/12/21 02:10:47;;;;;;;2.08;1.00;;;22.90;37.40;;;;;;5003593;28;20409;-44
2020/12/21 02:13:12;;;;;;;2.85;0.90;;;22.90;37.50;;;;;;5004686;28;20125;-43
2020/12/21 02:15:38;;;;;;;3.05;1.10;;;22.90;37.50;;;;;;5002169;28;20429;-44
2020/12/21 02:18:04;;;;;;;3.30;1.20;;;22.80;37.50;;;;;;4989591;28;20505;-44
2020/12/21 02:20:33;;;;;;;2.60;1.05;;;22.80;37.40;;;;;;4985338;28;20034;-44
2020/12/21 02:22:59;;;;;;;3.53;1.05;;;22.90;37.50;;;;;;5007024;28;20022;-44
2020/12/21 02:25:25;;;;;;;3.13;1.13;;;22.80;37.40;;;;;;5003241;28;20022;-45
2020/12/21 02:27:51;;;;;;;2.50;1.13;;;22.80;37.40;;;;;;5001346;28;20545;-46
2020/12/21 02:30:17;;;;;;;2.47;1.17;;;22.80;37.50;;;;;;5004819;28;20025;-43
2020/12/21 02:32:43;;;;;;;2.67;1.15;;;22.80;37.50;;;;;;5003864;28;20088;-42
2020/12/21 02:35:09;;;;;;;2.35;1.30;;;22.80;37.40;;;;;;5002348;28;20477;-46
2020/12/21 02:37:35;;;;;;;2.15;1.08;;;22.80;37.50;;;;;;5003266;28;20108;-45
2020/12/21 02:40:01;;;;;;;1.52;0.90;;;22.80;37.50;;;;;;5002014;28;20097;-42
2020/12/21 02:42:27;;;;;;;2.55;1.08;;;22.80;37.50;;;;;;5004956;28;20026;-41
2020/12/21 02:44:53;;;;;;;2.63;1.10;;;22.70;37.40;;;;;;5001712;28;20415;-44
2020/12/21 02:47:19;;;;;;;2.38;1.00;;;22.70;37.40;;;;;;5000739;28;20038;-47
2020/12/21 02:49:44;;;;;;;3.13;1.00;;;22.70;38.10;;;;;;5003474;28;20130;-42
2020/12/21 02:52:10;;;;;;;2.63;0.82;;;22.80;37.50;;;;;;5002434;28;20030;-45
2020/12/21 02:54:36;;;;;;;2.83;1.25;;;22.70;37.50;;;;;;5003152;28;20030;-42
2020/12/21 02:57:02;;;;;;;1.88;1.05;;;22.70;37.50;;;;;;5002886;28;20052;-45
2020/12/21 02:59:27;;;;;;;2.13;1.00;;;22.70;37.50;;;;;;5002425;28;20450;-44
2020/12/21 03:01:53;;;;;;;3.03;1.08;;;22.70;37.50;;;;;;5005814;28;20109;-43
2020/12/21 03:04:19;;;;;;;1.88;1.02;;;22.70;37.50;;;;;;5003391;28;20026;-45
2020/12/21 03:06:45;;;;;;;3.55;1.10;;;22.70;37.60;;;;;;5003699;28;20038;-44
2020/12/21 03:09:10;;;;;;;1.90;0.93;;;22.70;37.60;;;;;;5001194;28;20050;-42
2020/12/21 03:11:36;;;;;;;2.05;0.95;;;22.60;37.50;;;;;;5003963;28;20109;-44
2020/12/21 03:14:02;;;;;;;2.30;1.10;;;22.60;37.50;;;;;;5002966;28;20100;-43
2020/12/21 03:16:28;;;;;;;1.77;0.90;;;22.60;37.60;;;;;;5005220;28;20042;-44
2020/12/21 03:18:53;;;;;;;2.25;0.93;;;22.60;37.60;;;;;;5008319;28;20058;-44
2020/12/21 03:21:19;;;;;;;1.88;1.10;;;22.60;37.60;;;;;;5007938;28;20036;-43
2020/12/21 03:23:45;;;;;;;2.33;0.88;;;22.60;37.60;;;;;;5005695;28;20030;-46
2020/12/21 03:26:11;;;;;;;1.55;0.82;;;22.60;37.70;;;;;;5006480;28;20030;-43
2020/12/21 03:28:37;;;;;;;1.88;0.85;;;22.60;37.70;;;;;;5006101;28;20034;-45
2020/12/21 03:31:03;;;;;;;1.50;0.90;;;22.60;37.70;;;;;;5004026;28;20089;-42
2020/12/21 03:33:28;;;;;;;2.30;0.98;;;22.60;37.70;;;;;;5006899;28;20452;-43
2020/12/21 03:35:54;;;;;;;2.05;1.10;;;22.60;37.70;;;;;;5005610;28;20030;-43
2020/12/21 03:38:20;;;;;;;1.20;0.90;;;22.50;37.60;;;;;;5008893;28;20374;-44
2020/12/21 03:40:46;;;;;;;2.03;0.82;;;22.50;37.70;;;;;;5006701;28;20022;-44
2020/12/21 03:43:11;;;;;;;1.20;0.80;;;22.50;37.70;;;;;;5006455;28;20041;-43
2020/12/21 03:45:37;;;;;;;2.55;1.00;;;22.50;38.30;;;;;;5005425;28;20033;-46
2020/12/21 03:48:03;;;;;;;1.75;0.85;;;22.50;37.70;;;;;;5005779;28;20497;-42
2020/12/21 03:50:28;;;;;;;2.40;1.17;;;22.50;37.70;;;;;;5007417;28;20022;-44
2020/12/21 03:52:54;;;;;;;1.75;0.90;;;22.50;37.70;;;;;;5008046;28;20330;-44
2020/12/21 03:55:20;;;;;;;0.85;0.70;;;22.50;37.70;;;;;;5005783;28;20030;-42
2020/12/21 03:57:46;;;;;;;2.00;0.80;;;22.50;37.70;;;;;;5003906;28;20045;-43
2020/12/21 04:00:12;;;;;;;1.50;0.70;;;22.50;37.70;;;;;;5006932;28;20551;-44
2020/12/21 04:02:40;;;;;;;2.20;0.90;;;22.50;37.70;;;;;;5007138;28;20026;-45
2020/12/21 04:05:07;;;;;;;1.98;0.90;;;22.50;37.80;;;;;;5006384;28;20022;-44
2020/12/21 04:07:35;;;;;;;1.85;0.90;;;22.40;37.70;;;;;;5004197;28;20468;-44
2020/12/21 04:10:04;;;;;;;1.75;0.95;;;22.50;37.80;;;;;;5003778;28;20228;-42
2020/12/21 04:12:30;;;;;;;2.08;0.80;;;22.40;37.80;;;;;;5005125;28;20037;-45
2020/12/21 04:14:58;;;;;;;1.90;0.90;;;22.40;37.80;;;;;;5004524;28;20041;-43
2020/12/21 04:17:24;;;;;;;2.30;1.10;;;22.40;37.80;;;;;;4987668;28;21750;-42
2020/12/21 04:19:50;;;;;;;2.00;0.98;;;22.40;37.90;;;;;;5007699;28;20026;-43
2020/12/21 04:22:15;;;;;;;2.25;1.20;;;22.40;37.90;;;;;;5006225;28;20018;-42
2020/12/21 04:24:41;;;;;;;1.88;0.88;;;22.40;38.00;;;;;;5006448;28;20126;-42
2020/12/21 04:27:07;;;;;;;1.48;0.70;;;22.40;37.90;;;;;;5005059;28;20430;-44
2020/12/21 04:29:33;;;;;;;1.75;1.00;;;22.40;38.00;;;;;;5004723;28;20417;-43
2020/12/21 04:31:58;;;;;;;1.30;0.80;;;22.40;38.00;;;;;;5007275;28;20400;-42
2020/12/21 04:34:24;;;;;;;2.85;0.70;;;22.40;38.00;;;;;;5005507;28;20049;-50
2020/12/21 04:36:51;;;;;;;2.25;0.85;;;22.40;38.00;;;;;;5006120;28;20046;-45
2020/12/21 04:39:17;;;;;;;1.52;0.68;;;22.40;38.00;;;;;;5006702;28;20365;-43
2020/12/21 04:41:53;;;;;;;1.40;0.63;;;22.30;38.00;;;;;;5006109;28;20026;-44
2020/12/21 04:44:21;;;;;;;2.00;0.95;;;22.30;38.00;;;;;;5003853;28;20022;-44
2020/12/21 04:46:48;;;;;;;1.67;0.82;;;22.30;38.00;;;;;;5006253;28;20027;-46
2020/12/21 04:49:17;;;;;;;1.85;0.90;;;22.30;38.10;;;;;;5007217;28;20037;-46
2020/12/21 04:51:48;;;;;;;1.35;0.70;;;22.30;38.00;;;;;;5004632;28;20577;-44
2020/12/21 04:54:14;;;;;;;1.48;0.77;;;22.30;38.70;;;;;;5005729;28;20034;-45
2020/12/21 04:56:41;;;;;;;1.95;0.68;;;22.30;38.10;;;;;;5007106;28;20076;-43
2020/12/21 04:59:08;;;;;;;1.10;0.60;;;22.30;38.10;;;;;;5007035;28;20438;-44
2020/12/21 05:01:34;;;;;;;1.00;0.75;;;22.30;38.10;;;;;;5003870;28;20030;-44
2020/12/21 05:04:00;;;;;;;2.03;0.90;;;22.30;38.20;;;;;;5005188;28;20306;-47
2020/12/21 05:06:27;;;;;;;2.22;0.80;;;22.30;38.20;;;;;;5002477;28;20041;-46
2020/12/21 05:09:07;;;;;;;2.03;0.82;;;22.30;38.20;;;;;;5009768;28;20057;-46
2020/12/21 05:11:34;;;;;;;2.17;0.75;;;22.30;38.20;;;;;;5007295;28;20058;-44
2020/12/21 05:14:11;;;;;;;2.13;0.80;;;22.20;38.10;;;;;;5003481;28;20029;-46
2020/12/21 05:16:37;;;;;;;2.00;0.73;;;22.20;38.10;;;;;;5005212;28;20078;-42
2020/12/21 05:19:05;;;;;;;1.77;0.80;;;22.20;38.10;;;;;;5003026;28;20498;-46
2020/12/21 05:21:31;;;;;;;1.85;0.70;;;22.20;38.20;;;;;;5009495;28;20038;-41
2020/12/21 05:24:01;;;;;;;1.42;0.70;;;22.20;38.20;;;;;;5006989;28;20036;-46
2020/12/21 05:26:32;;;;;;;1.50;0.70;;;22.20;38.20;;;;;;5005180;28;20373;-43
2020/12/21 05:29:01;;;;;;;2.70;0.90;;;22.20;38.20;;;;;;5004097;28;20315;-46
2020/12/21 05:31:28;;;;;;;1.17;0.60;;;22.20;38.20;;;;;;5004600;28;20026;-44
2020/12/21 05:33:54;;;;;;;1.27;0.80;;;22.20;38.30;;;;;;5002578;28;20036;-45
2020/12/21 05:36:22;;;;;;;1.05;0.60;;;22.20;38.20;;;;;;5004112;28;20069;-45
2020/12/21 05:39:02;;;;;;;1.15;0.60;;;22.20;38.30;;;;;;5005526;28;20041;-47
2020/12/21 05:41:28;;;;;;;1.08;0.52;;;22.20;38.20;;;;;;5005640;28;20461;-42
2020/12/21 05:43:56;;;;;;;1.45;0.80;;;22.20;38.40;;;;;;5004464;28;20104;-43
2020/12/21 05:46:24;;;;;;;2.22;0.70;;;22.10;38.90;;;;;;5003201;28;20061;-45
2020/12/21 05:48:52;;;;;;;1.20;0.57;;;22.10;38.30;;;;;;5006899;28;20022;-43
2020/12/21 05:51:24;;;;;;;1.60;0.70;;;22.10;38.30;;;;;;5004704;28;21120;-46
2020/12/21 05:53:53;;;;;;;1.23;0.68;;;22.10;38.20;;;;;;5002690;28;20037;-47
2020/12/21 05:56:23;;;;;;;1.52;0.70;;;22.10;38.30;;;;;;5004142;28;20042;-45
2020/12/21 05:58:50;;;;;;;1.20;0.75;;;22.10;38.20;;;;;;5004396;28;20041;-45
2020/12/21 06:01:17;;;;;;;1.25;0.52;;;22.10;38.30;;;;;;5006595;28;20030;-43
2020/12/21 06:03:54;;;;;;;1.00;0.50;;;22.10;38.30;;;;;;5003009;28;20022;-47
2020/12/21 06:06:25;;;;;;;2.25;0.88;;;22.10;38.90;;;;;;5002963;28;20041;-42
2020/12/21 06:08:56;;;;;;;2.22;0.73;;;22.10;38.40;;;;;;5000944;28;20396;-45
2020/12/21 06:11:30;;;;;;;2.05;0.80;;;22.10;38.40;;;;;;5005616;28;20454;-44
2020/12/21 06:13:57;;;;;;;1.90;0.68;;;22.10;38.40;;;;;;5005075;28;20065;-43
2020/12/21 06:16:24;;;;;;;1.40;0.57;;;22.10;38.40;;;;;;5000512;28;20474;-46
2020/12/21 06:19:00;;;;;;;1.02;0.60;;;22.10;38.40;;;;;;4984387;28;20026;-43
2020/12/21 06:21:33;;;;;;;1.90;0.88;;;22.00;38.40;;;;;;5004484;28;20041;-49
2020/12/21 06:24:00;;;;;;;2.10;0.70;;;22.00;38.40;;;;;;5001845;28;20045;-44
2020/12/21 06:26:38;;;;;;;0.55;0.50;;;22.00;38.40;;;;;;5002143;28;20105;-42
2020/12/21 06:29:07;;;;;;;1.05;0.60;;;22.00;38.40;;;;;;5003861;28;20349;-42
2020/12/21 06:31:41;;;;;;;0.75;0.52;;;22.00;38.40;;;;;;5004766;28;20030;-42
2020/12/21 06:34:09;;;;;;;1.35;0.60;;;22.00;38.40;;;;;;5002876;28;20081;-42
2020/12/21 06:36:35;;;;;;;1.13;0.50;;;22.00;38.40;;;;;;5003088;28;20080;-47
2020/12/21 06:39:01;;;;;;;1.83;0.80;;;22.00;38.40;;;;;;5004637;28;20342;-47
2020/12/21 06:41:28;;;;;;;0.90;0.60;;;22.00;38.40;;;;;;5003439;28;20057;-47
2020/12/21 06:44:04;;;;;;;1.92;0.85;;;22.00;38.40;;;;;;5002344;28;20038;-44
2020/12/21 06:46:31;;;;;;;1.33;0.50;;;22.00;38.40;;;;;;5001851;28;20025;-47
2020/12/21 06:49:16;;;;;;;1.05;0.60;;;22.00;38.40;;;;;;4984528;28;20019;-44
2020/12/21 06:51:46;;;;;;;1.10;0.63;;;22.00;38.40;;;;;;5002222;28;21115;-45
2020/12/21 06:54:13;;;;;;;2.20;0.60;;;22.00;38.40;;;;;;5002695;28;20349;-46
2020/12/21 06:56:43;;;;;;;0.88;0.60;;;22.00;38.50;;;;;;4999390;28;20053;-47
2020/12/21 06:59:11;;;;;;;1.90;0.60;;;22.00;38.50;;;;;;5004664;28;20038;-44
2020/12/21 07:01:38;;;;;;;1.45;0.60;;;22.00;38.50;;;;;;5004224;28;20053;-46
2020/12/21 07:04:04;;;;;;;1.63;0.63;;;21.90;38.40;;;;;;5001464;28;20107;-48
2020/12/21 07:06:29;;;;;;;1.05;0.50;;;21.90;38.40;;;;;;5001587;28;20111;-43
2020/12/21 07:08:59;;;;;;;1.08;0.60;;;21.90;38.40;;;;;;4987637;28;20049;-46
2020/12/21 07:11:25;;;;;;;0.82;0.52;;;21.90;38.40;;;;;;5005990;28;20427;-48
2020/12/21 07:13:51;;;;;;;0.90;0.57;;;21.90;38.40;;;;;;5023495;28;20037;-46
2020/12/21 07:16:20;;;;;;;1.05;0.68;;;21.90;38.40;;;;;;5022255;28;20056;-48
2020/12/21 07:18:47;;;;;;;1.48;0.47;;;21.90;38.40;;;;;;5022536;28;20034;-45
2020/12/21 07:21:14;;;;;;;1.85;0.60;;;21.90;38.40;;;;;;5025491;28;20029;-44
2020/12/21 07:23:41;;;;;;;1.25;0.60;;;21.90;38.50;;;;;;5023170;28;20453;-42
2020/12/21 07:26:07;;;;;;;0.77;0.40;;;21.90;38.40;;;;;;5022214;28;20065;-43
2020/12/21 07:28:34;;;;;;;0.85;0.50;;;21.90;38.50;;;;;;5024019;28;20076;-47
2020/12/21 07:31:09;;;;;;;0.93;0.50;;;21.90;38.60;;;;;;5026225;28;20025;-48
2020/12/21 07:34:01;;;;;;;5.10;0.75;;;22.00;38.90;;;;;;5022007;28;20026;-51
2020/12/21 07:36:37;;;;;;;1.48;0.50;;;22.10;38.90;;;;;;5021304;28;20041;-48
2020/12/21 07:39:14;;;;;;;0.68;0.32;;;22.20;38.90;;;;;;5030400;28;20039;-48
2020/12/21 07:41:57;;;;;;;1.13;0.43;;;22.30;38.80;;;;;;5026436;28;20070;-48
2020/12/21 07:44:32;;;;;;;1.83;0.82;;;22.40;38.70;;;;;;5028320;28;20045;-48
2020/12/21 07:47:27;;;;;;;3.40;0.60;;;22.50;38.40;;;;;;5029466;28;20021;-43
2020/12/21 07:49:53;;;;;;;1.25;0.60;;;22.60;38.20;;;;;;5023432;28;20037;-44
2020/12/21 07:52:19;;;;;;;1.17;0.68;;;22.70;38.00;;;;;;5030714;28;20445;-47
2020/12/21 07:54:45;;;;;;;2.33;0.60;;;22.80;37.90;;;;;;5029206;28;20021;-45
2020/12/21 07:57:17;;;;;;;2.70;1.10;;;22.90;37.80;;;;;;5024857;28;20048;-43
2020/12/21 07:59:43;;;;;;;4.80;1.10;;;23.00;37.70;;;;;;5024093;28;20033;-41
2020/12/21 08:02:09;;;;;;;3.25;1.33;;;23.10;37.60;;;;;;5027577;28;20029;-44
2020/12/21 08:04:36;;;;;;;2.90;1.00;;;23.10;37.40;;;;;;5027187;28;20025;-48
2020/12/21 08:07:12;;;;;;;2.80;1.10;;;23.20;37.40;;;;;;5027054;28;20037;-43
2020/12/21 08:09:39;;;;;;;3.35;1.20;;;23.20;37.50;;;;;;5028400;28;20365;-49
2020/12/21 08:12:09;;;;;;;3.90;1.23;;;23.30;37.70;;;;;;5027013;28;20446;-47
2020/12/21 08:14:35;;;;;;;5.93;1.30;;;23.20;37.70;;;;;;5023801;28;20037;-46
2020/12/21 08:17:17;;;;;;;3.03;1.10;;;23.30;37.80;;;;;;5031669;28;20042;-45
2020/12/21 08:19:58;;;;;;;2.58;0.90;;;23.30;37.80;;;;;;5027552;28;20450;-46
2020/12/21 08:22:28;;;;;;;2.92;1.15;;;23.30;37.80;;;;;;5030883;28;20025;-45
2020/12/21 08:25:10;;;;;;;2.80;1.23;;;23.30;37.80;;;;;;5024958;28;20032;-46
2020/12/21 08:27:52;;;;;;;3.70;1.13;;;23.40;37.90;;;;;;5025292;28;20022;-47
2020/12/21 08:30:18;;;;;;;4.82;1.15;;;23.40;38.00;;;;;;5032028;28;20025;-42
2020/12/21 08:32:44;;;;;;;2.67;1.02;;;23.40;38.00;;;;;;5031332;28;20045;-44
2020/12/21 08:35:11;;;;;;;2.95;1.27;;;23.50;38.10;;;;;;5027330;28;21382;-46
2020/12/21 08:37:37;;;;;;;2.80;1.20;;;23.50;38.20;;;;;;5027266;28;20477;-44
2020/12/21 08:40:10;;;;;;;3.78;1.40;;;23.50;38.30;;;;;;5030114;28;20119;-41
2020/12/21 08:42:36;;;;;;;3.90;1.17;;;23.50;38.30;;;;;;5029149;28;20036;-49
2020/12/21 08:45:03;;;;;;;7.10;1.70;;;23.50;38.20;;;;;;5024923;28;20087;-46
2020/12/21 08:47:28;;;;;;;3.78;1.20;;;23.50;38.10;;;;;;5028916;28;20033;-43
2020/12/21 08:49:54;;;;;;;4.53;1.27;;;23.50;38.10;;;;;;5032566;28;20039;-47
2020/12/21 08:52:20;;;;;;;3.83;1.30;;;23.50;38.10;;;;;;5032399;28;20456;-44
2020/12/21 08:54:45;;;;;;;6.38;1.77;;;23.50;38.00;;;;;;5026943;28;20079;-44
2020/12/21 08:57:11;;;;;;;4.32;1.55;;;23.60;38.00;;;;;;5027969;28;20118;-42
2020/12/21 08:59:37;;;;;;;3.95;1.23;;;23.50;38.00;;;;;;5029979;28;20036;-43
2020/12/21 09:02:03;;;;;;;3.33;1.25;;;23.60;38.00;;;;;;5024107;28;20025;-44
2020/12/21 09:04:29;;;;;;;3.72;1.25;;;23.60;37.90;;;;;;5025022;28;20047;-45
2020/12/21 09:06:55;;;;;;;3.00;1.17;;;23.60;37.90;;;;;;5008362;28;20025;-41
2020/12/21 09:09:22;;;;;;;3.72;1.40;;;23.60;37.80;;;;;;5026833;28;20137;-45
2020/12/21 09:11:53;;;;;;;3.78;1.40;;;23.50;37.60;;;;;;5006778;28;20038;-41
2020/12/21 09:14:24;;;;;;;4.55;1.50;;;23.50;37.50;;;;;;5002961;28;20041;-42
2020/12/21 09:16:50;;;;;;;3.35;1.33;;;23.50;37.40;;;;;;5007081;28;20438;-48
2020/12/21 09:19:16;;;;;;;5.05;1.65;;;23.50;37.30;;;;;;5004178;28;20499;-49
2020/12/21 09:21:43;;;;;;;4.07;1.17;;;23.50;37.20;;;;;;5009589;28;20033;-46
2020/12/21 09:24:10;;;;;;;3.00;1.30;;;23.60;37.20;;;;;;5003076;28;20023;-50
2020/12/21 09:26:36;;;;;;;4.22;1.50;;;23.70;37.30;;;;;;5005096;28;20351;-50
2020/12/21 09:29:06;;;;;;;4.22;1.50;;;23.80;37.30;;;;;;4999496;28;20105;-46
2020/12/21 09:31:33;;;;;;;4.45;1.65;;;23.90;37.30;;;;;;5003423;28;20030;-48
2020/12/21 09:33:59;;;;;;;2.60;1.27;;;23.90;37.20;;;;;;5002000;28;20026;-45
2020/12/21 09:36:27;;;;;;;4.95;1.35;;;24.00;37.20;;;;;;5005515;28;20045;-44
2020/12/21 09:38:53;;;;;;;3.38;1.58;;;24.10;37.10;;;;;;5010711;28;20128;-47
2020/12/21 09:41:20;;;;;;;5.70;1.42;;;24.10;37.10;;;;;;5005734;28;20041;-46
2020/12/21 09:43:50;;;;;;;4.53;1.20;;;24.20;37.00;;;;;;5006294;28;20030;-48
2020/12/21 09:46:27;;;;;;;3.47;1.35;;;24.20;37.40;;;;;;5010385;28;20030;-46
2020/12/21 09:48:54;;;;;;;7.10;1.40;;;24.20;36.60;;;;;;5009018;28;20022;-51
2020/12/21 09:51:20;;;;;;;3.03;1.25;;;24.30;36.60;;;;;;5010448;28;20030;-51
2020/12/21 09:53:46;;;;;;;3.92;1.23;;;24.30;36.50;;;;;;4999771;28;20030;-50
2020/12/21 09:56:13;;;;;;;2.75;1.15;;;24.30;36.40;;;;;;5002663;28;20476;-49
2020/12/21 09:58:40;;;;;;;3.58;1.27;;;24.40;36.40;;;;;;5001736;28;20037;-48
2020/12/21 10:01:11;;;;;;;3.55;1.15;;;24.40;36.30;;;;;;5003223;28;20426;-46
2020/12/21 10:03:41;;;;;;;3.13;1.15;;;24.40;36.10;;;;;;5005222;28;21628;-49
2020/12/21 10:06:10;;;;;;;2.33;0.95;;;24.40;36.00;;;;;;5004323;28;20033;-47
2020/12/21 10:08:37;;;;;;;3.05;1.23;;;24.40;35.90;;;;;;5006267;28;20060;-51
2020/12/21 10:11:05;;;;;;;3.75;1.20;;;24.40;35.80;;;;;;5006688;28;20050;-47
2020/12/21 10:13:32;;;;;;;2.08;1.02;;;24.40;35.70;;;;;;5005608;28;20357;-53
2020/12/21 10:15:59;;;;;;;4.15;1.25;;;24.40;35.70;;;;;;5007914;28;20449;-49
2020/12/21 10:18:25;;;;;;;2.85;1.30;;;24.50;35.60;;;;;;5004870;28;20031;-46
2020/12/21 10:20:51;;;;;;;3.40;1.40;;;24.50;35.60;;;;;;5002808;28;20030;-47
2020/12/21 10:23:17;;;;;;;2.10;1.10;;;24.50;35.50;;;;;;5006067;28;20085;-48
2020/12/21 10:25:42;;;;;;;3.80;1.30;;;24.50;35.40;;;;;;5004933;28;20034;-44
2020/12/21 10:28:09;;;;;;;3.17;1.23;;;24.50;35.30;;;;;;5003794;28;20025;-51
2020/12/21 10:30:35;;;;;;;3.47;1.30;;;24.50;35.20;;;;;;5002087;28;20022;-46
2020/12/21 10:33:01;;;;;;;2.70;1.10;;;24.50;35.20;;;;;;5000187;28;20030;-44
2020/12/21 10:35:28;;;;;;;4.53;1.30;;;24.50;35.10;;;;;;4996208;28;20038;-47
2020/12/21 10:37:54;;;;;;;2.92;1.40;;;24.50;35.10;;;;;;5013102;28;20096;-50
2020/12/21 10:40:19;;;;;;;2.95;1.27;;;24.50;35.00;;;;;;4998515;28;20038;-47
2020/12/21 10:42:45;;;;;;;2.45;1.13;;;24.50;35.00;;;;;;5006014;28;20087;-45
2020/12/21 10:45:11;;;;;;;2.10;0.90;;;24.50;35.00;;;;;;5014536;28;20065;-44
2020/12/21 10:47:37;;;;;;;2.50;1.00;;;24.60;35.00;;;;;;5013176;28;20022;-50
2020/12/21 10:50:03;;;;;;;2.10;1.05;;;24.50;34.90;;;;;;5026124;28;20048;-42
2020/12/21 10:52:29;;;;;;;2.85;1.10;;;24.50;34.90;;;;;;5012105;28;20061;-51
2020/12/21 10:54:55;;;;;;;1.90;0.88;;;24.50;34.90;;;;;;5030433;28;20072;-47
2020/12/21 10:57:20;;;;;;;2.45;1.20;;;24.50;34.90;;;;;;5014963;28;20056;-52
2020/12/21 10:59:46;;;;;;;2.15;1.17;;;24.50;34.90;;;;;;5015126;28;20120;-48
2020/12/21 11:02:12;;;;;;;2.97;0.95;;;24.50;35.00;;;;;;4997443;28;20030;-46
2020/12/21 11:04:38;;;;;;;2.13;1.00;;;24.50;35.10;;;;;;5005623;28;20038;-51
2020/12/21 11:07:04;;;;;;;1.83;0.85;;;24.50;35.40;;;;;;5017905;28;20105;-57
2020/12/21 11:09:29;;;;;;;2.63;0.98;;;24.50;35.60;;;;;;5017803;28;20057;-51
2020/12/21 11:11:55;;;;;;;2.75;0.93;;;24.50;35.80;;;;;;5032802;28;20021;-57
2020/12/21 11:14:21;;;;;;;3.72;0.93;;;24.50;35.90;;;;;;5030644;28;20096;-55
2020/12/21 11:16:52;;;;;;;1.42;0.80;;;24.60;35.90;;;;;;5031656;28;20512;-50
2020/12/21 11:19:18;;;;;;;2.95;1.00;;;24.60;35.90;;;;;;5032160;28;20036;-51
2020/12/21 11:21:43;;;;;;;4.00;1.00;;;24.60;35.90;;;;;;5031599;28;20026;-56
2020/12/21 11:24:09;;;;;;;2.33;0.90;;;24.60;35.70;;;;;;5022883;28;20330;-57
2020/12/21 11:26:35;;;;;;;4.88;1.27;;;24.60;35.70;;;;;;5030818;28;20441;-58
2020/12/21 11:29:03;;;;;;;3.60;1.00;;;24.70;35.70;;;;;;5048983;28;20029;-60
2020/12/21 11:31:31;;;;;;;2.40;0.85;;;24.70;35.50;;;;;;5035681;28;20029;-50
2020/12/21 11:33:58;;;;;;;3.70;1.10;;;24.70;35.40;;;;;;5047427;28;20037;-47
2020/12/21 11:36:24;;;;;;;3.38;1.25;;;24.80;35.30;;;;;;5037999;28;20029;-53
2020/12/21 11:38:50;;;;;;;3.00;1.27;;;24.70;35.50;;;;;;5037877;28;20400;-57
2020/12/21 11:41:16;;;;;;;3.60;1.20;;;24.80;34.70;;;;;;5030088;28;20040;-58
2020/12/21 11:43:42;;;;;;;4.45;1.60;;;24.80;34.60;;;;;;5017563;28;20090;-55
2020/12/21 11:46:08;;;;;;;3.03;1.00;;;24.80;34.50;;;;;;5033787;28;20507;-57
2020/12/21 11:48:33;;;;;;;2.40;1.20;;;24.90;34.40;;;;;;5035220;28;20033;-57
2020/12/21 11:50:59;;;;;;;2.67;1.13;;;24.80;34.30;;;;;;5040753;28;20033;-50
2020/12/21 11:53:26;;;;;;;3.25;1.38;;;24.90;34.20;;;;;;5017944;28;20116;-54
2020/12/21 11:55:52;;;;;;;2.35;1.13;;;24.90;34.20;;;;;;5034779;28;20036;-55
2020/12/21 11:58:18;;;;;;;3.03;1.42;;;25.00;34.10;;;;;;5036311;28;20466;-51
2020/12/21 12:00:43;;;;;;;2.30;1.17;;;25.00;34.10;;;;;;5043544;28;20112;-48
2020/12/21 12:03:09;;;;;;;3.50;1.00;;;25.10;34.00;;;;;;5029401;28;20032;-57
2020/12/21 12:05:35;;;;;;;1.70;0.90;;;25.10;33.90;;;;;;5034882;28;20096;-56
2020/12/21 12:08:01;;;;;;;1.85;0.90;;;25.10;33.80;;;;;;5036587;28;20044;-62
2020/12/21 12:10:28;;;;;;;3.70;1.15;;;25.10;33.70;;;;;;5014078;28;20061;-50
2020/12/21 12:12:53;;;;;;;2.85;1.08;;;25.10;33.70;;;;;;5014986;28;20045;-56
2020/12/21 12:15:19;;;;;;;2.17;0.90;;;25.20;33.70;;;;;;4995540;28;20030;-50
2020/12/21 12:17:45;;;;;;;2.50;1.02;;;25.20;33.60;;;;;;5015227;28;20042;-48
2020/12/21 12:20:12;;;;;;;4.78;1.13;;;25.20;33.60;;;;;;5015747;28;20026;-56
2020/12/21 12:22:38;;;;;;;2.67;1.20;;;25.30;33.60;;;;;;5010563;28;20037;-51
2020/12/21 12:25:04;;;;;;;2.05;0.90;;;25.30;33.50;;;;;;5015103;28;20026;-56
2020/12/21 12:27:30;;;;;;;4.43;1.20;;;25.30;33.40;;;;;;5014362;28;20034;-51
2020/12/21 12:29:56;;;;;;;3.67;0.90;;;25.30;33.40;;;;;;5015363;28;20080;-53
2020/12/21 12:32:22;;;;;;;1.90;0.90;;;25.40;33.30;;;;;;5016207;28;20029;-51
2020/12/21 12:34:48;;;;;;;2.13;0.98;;;25.30;33.20;;;;;;5019474;28;20033;-51
2020/12/21 12:37:14;;;;;;;3.15;1.35;;;25.40;33.10;;;;;;5014888;28;20033;-48
2020/12/21 12:39:39;;;;;;;2.72;1.13;;;25.40;33.10;;;;;;5010382;28;20036;-54
2020/12/21 12:42:05;;;;;;;5.28;1.10;;;25.40;33.10;;;;;;5016930;28;20088;-53
2020/12/21 12:44:31;;;;;;;2.72;1.05;;;25.40;33.00;;;;;;5015237;28;20105;-56
2020/12/21 12:47:04;;;;;;;3.13;0.90;;;25.40;33.00;;;;;;5013745;28;20113;-48
2020/12/21 12:49:30;;;;;;;3.05;1.20;;;25.40;33.00;;;;;;5014776;28;20041;-53